sensor_id;sensor_type;location;lat;lon;timestamp;P1;durP1;ratioP1;P2;durP2;ratioP2
21769;SDS011;11046;49.558;8.674;2023-07-13T00:01:49;3.42;;;1.67;;
21769;SDS011;11046;49.558;8.674;2023-07-13T00:04:50;2.97;;;1.40;;
21769;SDS011;11046;49.558;8.674;2023-07-13T00:07:51;3.53;;;1.40;;
21769;SDS011;11046;49.558;8.674;2023-07-13T00:10:52;2.47;;;1.40;;
21769;SDS011;11046;49.558;8.674;2023-07-13T00:13:55;3.92;;;1.40;;
21769;SDS011;11046;49.558;8.674;2023-07-13T00:16:56;2.38;;;1.30;;
21769;SDS011;11046;49.558;8.674;2023-07-13T00:19:57;4.03;;;1.42;;
21769;SDS011;11046;49.558;8.674;2023-07-13T00:22:58;4.30;;;1.60;;
21769;SDS011;11046;49.558;8.674;2023-07-13T00:25:59;2.70;;;1.58;;
21769;SDS011;11046;49.558;8.674;2023-07-13T00:29:01;4.40;;;1.75;;
21769;SDS011;11046;49.558;8.674;2023-07-13T00:32:03;3.35;;;1.63;;
21769;SDS011;11046;49.558;8.674;2023-07-13T00:35:05;3.33;;;1.73;;
21769;SDS011;11046;49.558;8.674;2023-07-13T00:38:06;3.60;;;1.65;;
21769;SDS011;11046;49.558;8.674;2023-07-13T00:41:07;4.30;;;1.80;;
21769;SDS011;11046;49.558;8.674;2023-07-13T00:44:17;3.85;;;1.80;;
21769;SDS011;11046;49.558;8.674;2023-07-13T00:47:18;4.88;;;1.80;;
21769;SDS011;11046;49.558;8.674;2023-07-13T00:50:20;2.88;;;1.70;;
21769;SDS011;11046;49.558;8.674;2023-07-13T00:53:22;3.00;;;1.48;;
21769;SDS011;11046;49.558;8.674;2023-07-13T00:56:26;6.45;;;1.65;;
21769;SDS011;11046;49.558;8.674;2023-07-13T00:59:28;2.72;;;1.70;;
21769;SDS011;11046;49.558;8.674;2023-07-13T01:02:30;5.32;;;1.80;;
21769;SDS011;11046;49.558;8.674;2023-07-13T01:05:32;3.25;;;1.73;;
21769;SDS011;11046;49.558;8.674;2023-07-13T01:08:33;5.30;;;1.90;;
21769;SDS011;11046;49.558;8.674;2023-07-13T01:11:34;3.88;;;1.70;;
21769;SDS011;11046;49.558;8.674;2023-07-13T01:14:36;2.95;;;1.73;;
21769;SDS011;11046;49.558;8.674;2023-07-13T01:17:37;4.03;;;1.75;;
21769;SDS011;11046;49.558;8.674;2023-07-13T01:20:39;3.25;;;1.60;;
21769;SDS011;11046;49.558;8.674;2023-07-13T01:23:40;4.28;;;1.92;;
21769;SDS011;11046;49.558;8.674;2023-07-13T01:26:41;3.33;;;1.70;;
21769;SDS011;11046;49.558;8.674;2023-07-13T01:29:43;2.30;;;1.67;;
21769;SDS011;11046;49.558;8.674;2023-07-13T01:32:46;3.65;;;1.80;;
21769;SDS011;11046;49.558;8.674;2023-07-13T01:35:47;3.78;;;1.80;;
21769;SDS011;11046;49.558;8.674;2023-07-13T01:38:50;6.28;;;1.67;;
21769;SDS011;11046;49.558;8.674;2023-07-13T01:41:51;3.42;;;1.80;;
21769;SDS011;11046;49.558;8.674;2023-07-13T01:44:54;3.95;;;1.98;;
21769;SDS011;11046;49.558;8.674;2023-07-13T01:47:54;5.55;;;1.90;;
21769;SDS011;11046;49.558;8.674;2023-07-13T01:50:55;3.63;;;1.70;;
21769;SDS011;11046;49.558;8.674;2023-07-13T01:53:55;3.30;;;1.90;;
21769;SDS011;11046;49.558;8.674;2023-07-13T01:56:57;4.45;;;2.00;;
21769;SDS011;11046;49.558;8.674;2023-07-13T01:59:58;4.00;;;1.83;;
21769;SDS011;11046;49.558;8.674;2023-07-13T02:02:58;2.35;;;1.73;;
21769;SDS011;11046;49.558;8.674;2023-07-13T02:05:59;2.90;;;1.92;;
21769;SDS011;11046;49.558;8.674;2023-07-13T02:09:00;4.47;;;2.25;;
21769;SDS011;11046;49.558;8.674;2023-07-13T02:12:01;3.60;;;2.10;;
21769;SDS011;11046;49.558;8.674;2023-07-13T02:15:07;3.92;;;1.90;;
21769;SDS011;11046;49.558;8.674;2023-07-13T02:18:08;4.45;;;1.90;;
21769;SDS011;11046;49.558;8.674;2023-07-13T02:21:09;2.38;;;1.83;;
21769;SDS011;11046;49.558;8.674;2023-07-13T02:24:09;4.15;;;2.42;;
21769;SDS011;11046;49.558;8.674;2023-07-13T02:27:16;5.97;;;1.80;;
21769;SDS011;11046;49.558;8.674;2023-07-13T02:30:17;4.93;;;2.38;;
21769;SDS011;11046;49.558;8.674;2023-07-13T02:33:17;3.15;;;2.17;;
21769;SDS011;11046;49.558;8.674;2023-07-13T02:36:18;3.33;;;2.30;;
21769;SDS011;11046;49.558;8.674;2023-07-13T02:39:20;3.38;;;2.08;;
21769;SDS011;11046;49.558;8.674;2023-07-13T02:42:20;5.35;;;2.15;;
21769;SDS011;11046;49.558;8.674;2023-07-13T02:45:21;2.60;;;2.03;;
21769;SDS011;11046;49.558;8.674;2023-07-13T02:48:21;5.35;;;2.20;;
21769;SDS011;11046;49.558;8.674;2023-07-13T02:51:22;3.97;;;2.03;;
21769;SDS011;11046;49.558;8.674;2023-07-13T02:54:22;8.27;;;2.08;;
21769;SDS011;11046;49.558;8.674;2023-07-13T02:57:23;3.10;;;2.13;;
21769;SDS011;11046;49.558;8.674;2023-07-13T03:00:24;4.75;;;1.98;;
21769;SDS011;11046;49.558;8.674;2023-07-13T03:03:24;4.20;;;2.80;;
21769;SDS011;11046;49.558;8.674;2023-07-13T03:06:27;7.03;;;2.55;;
21769;SDS011;11046;49.558;8.674;2023-07-13T03:09:32;10.32;;;2.30;;
21769;SDS011;11046;49.558;8.674;2023-07-13T03:12:34;3.03;;;2.17;;
21769;SDS011;11046;49.558;8.674;2023-07-13T03:15:37;4.85;;;2.50;;
21769;SDS011;11046;49.558;8.674;2023-07-13T03:18:38;3.50;;;2.03;;
21769;SDS011;11046;49.558;8.674;2023-07-13T03:21:42;5.65;;;2.70;;
21769;SDS011;11046;49.558;8.674;2023-07-13T03:24:43;7.03;;;2.60;;
21769;SDS011;11046;49.558;8.674;2023-07-13T03:27:44;4.47;;;2.40;;
21769;SDS011;11046;49.558;8.674;2023-07-13T03:30:45;6.57;;;2.60;;
21769;SDS011;11046;49.558;8.674;2023-07-13T03:33:45;3.00;;;2.50;;
21769;SDS011;11046;49.558;8.674;2023-07-13T03:36:48;3.63;;;2.30;;
21769;SDS011;11046;49.558;8.674;2023-07-13T03:39:49;5.32;;;2.17;;
21769;SDS011;11046;49.558;8.674;2023-07-13T03:42:51;3.83;;;2.38;;
21769;SDS011;11046;49.558;8.674;2023-07-13T03:45:52;3.60;;;2.40;;
21769;SDS011;11046;49.558;8.674;2023-07-13T03:48:53;3.70;;;2.42;;
21769;SDS011;11046;49.558;8.674;2023-07-13T03:51:54;4.82;;;2.40;;
21769;SDS011;11046;49.558;8.674;2023-07-13T03:54:54;6.38;;;2.80;;
21769;SDS011;11046;49.558;8.674;2023-07-13T03:58:00;2.97;;;2.25;;
21769;SDS011;11046;49.558;8.674;2023-07-13T04:01:23;3.25;;;2.45;;
21769;SDS011;11046;49.558;8.674;2023-07-13T04:04:27;6.10;;;2.42;;
21769;SDS011;11046;49.558;8.674;2023-07-13T04:07:28;4.82;;;2.70;;
21769;SDS011;11046;49.558;8.674;2023-07-13T04:10:28;4.28;;;2.42;;
21769;SDS011;11046;49.558;8.674;2023-07-13T04:13:30;4.72;;;2.70;;
21769;SDS011;11046;49.558;8.674;2023-07-13T04:16:31;4.40;;;2.60;;
21769;SDS011;11046;49.558;8.674;2023-07-13T04:19:32;6.90;;;2.45;;
21769;SDS011;11046;49.558;8.674;2023-07-13T04:22:32;5.30;;;2.50;;
21769;SDS011;11046;49.558;8.674;2023-07-13T04:25:33;5.70;;;2.60;;
21769;SDS011;11046;49.558;8.674;2023-07-13T04:28:34;5.97;;;2.60;;
21769;SDS011;11046;49.558;8.674;2023-07-13T04:31:34;4.95;;;2.72;;
21769;SDS011;11046;49.558;8.674;2023-07-13T04:34:35;5.03;;;2.53;;
21769;SDS011;11046;49.558;8.674;2023-07-13T04:37:35;4.40;;;2.25;;
21769;SDS011;11046;49.558;8.674;2023-07-13T04:40:36;8.13;;;2.60;;
21769;SDS011;11046;49.558;8.674;2023-07-13T04:43:37;12.57;;;2.65;;
21769;SDS011;11046;49.558;8.674;2023-07-13T04:46:38;3.08;;;2.03;;
21769;SDS011;11046;49.558;8.674;2023-07-13T04:49:38;3.97;;;2.40;;
21769;SDS011;11046;49.558;8.674;2023-07-13T04:52:39;3.00;;;2.00;;
21769;SDS011;11046;49.558;8.674;2023-07-13T04:55:40;7.00;;;2.38;;
21769;SDS011;11046;49.558;8.674;2023-07-13T04:58:41;2.83;;;2.45;;
21769;SDS011;11046;49.558;8.674;2023-07-13T05:01:41;5.05;;;2.10;;
21769;SDS011;11046;49.558;8.674;2023-07-13T05:04:42;3.72;;;2.47;;
21769;SDS011;11046;49.558;8.674;2023-07-13T05:07:45;4.03;;;2.10;;
21769;SDS011;11046;49.558;8.674;2023-07-13T05:10:46;5.18;;;2.28;;
21769;SDS011;11046;49.558;8.674;2023-07-13T05:13:47;4.55;;;2.20;;
21769;SDS011;11046;49.558;8.674;2023-07-13T05:16:47;6.15;;;2.55;;
21769;SDS011;11046;49.558;8.674;2023-07-13T05:19:48;5.05;;;2.38;;
21769;SDS011;11046;49.558;8.674;2023-07-13T05:22:48;15.82;;;3.75;;
21769;SDS011;11046;49.558;8.674;2023-07-13T05:25:50;6.40;;;2.35;;
21769;SDS011;11046;49.558;8.674;2023-07-13T05:28:50;5.82;;;2.72;;
21769;SDS011;11046;49.558;8.674;2023-07-13T05:31:51;3.40;;;2.83;;
21769;SDS011;11046;49.558;8.674;2023-07-13T05:34:52;4.32;;;2.58;;
21769;SDS011;11046;49.558;8.674;2023-07-13T05:37:52;5.22;;;2.00;;
21769;SDS011;11046;49.558;8.674;2023-07-13T05:40:53;6.00;;;2.10;;
21769;SDS011;11046;49.558;8.674;2023-07-13T05:43:55;5.35;;;2.20;;
21769;SDS011;11046;49.558;8.674;2023-07-13T05:46:56;2.67;;;2.10;;
21769;SDS011;11046;49.558;8.674;2023-07-13T05:49:57;3.33;;;2.40;;
21769;SDS011;11046;49.558;8.674;2023-07-13T05:52:57;6.35;;;1.90;;
21769;SDS011;11046;49.558;8.674;2023-07-13T05:55:58;6.35;;;2.33;;
21769;SDS011;11046;49.558;8.674;2023-07-13T05:58:58;4.90;;;2.20;;
21769;SDS011;11046;49.558;8.674;2023-07-13T06:01:59;3.45;;;2.30;;
21769;SDS011;11046;49.558;8.674;2023-07-13T06:05:00;6.07;;;2.22;;
21769;SDS011;11046;49.558;8.674;2023-07-13T06:08:00;3.90;;;2.35;;
21769;SDS011;11046;49.558;8.674;2023-07-13T06:11:01;6.45;;;2.38;;
21769;SDS011;11046;49.558;8.674;2023-07-13T06:14:03;3.22;;;1.95;;
21769;SDS011;11046;49.558;8.674;2023-07-13T06:17:04;5.13;;;2.83;;
21769;SDS011;11046;49.558;8.674;2023-07-13T06:20:06;4.13;;;2.10;;
21769;SDS011;11046;49.558;8.674;2023-07-13T06:23:07;3.20;;;1.90;;
21769;SDS011;11046;49.558;8.674;2023-07-13T06:26:08;5.78;;;2.15;;
21769;SDS011;11046;49.558;8.674;2023-07-13T06:29:09;4.82;;;2.45;;
21769;SDS011;11046;49.558;8.674;2023-07-13T06:32:09;3.00;;;1.90;;
21769;SDS011;11046;49.558;8.674;2023-07-13T06:35:10;6.10;;;2.10;;
21769;SDS011;11046;49.558;8.674;2023-07-13T06:38:12;3.67;;;2.20;;
21769;SDS011;11046;49.558;8.674;2023-07-13T06:41:13;2.22;;;1.90;;
21769;SDS011;11046;49.558;8.674;2023-07-13T06:44:13;3.22;;;2.00;;
21769;SDS011;11046;49.558;8.674;2023-07-13T06:47:14;3.50;;;1.90;;
21769;SDS011;11046;49.558;8.674;2023-07-13T06:50:15;3.10;;;1.83;;
21769;SDS011;11046;49.558;8.674;2023-07-13T06:53:15;3.17;;;2.03;;
21769;SDS011;11046;49.558;8.674;2023-07-13T06:56:17;5.35;;;2.50;;
21769;SDS011;11046;49.558;8.674;2023-07-13T06:59:18;4.50;;;2.00;;
21769;SDS011;11046;49.558;8.674;2023-07-13T07:02:19;4.18;;;1.75;;
21769;SDS011;11046;49.558;8.674;2023-07-13T07:05:19;6.05;;;1.60;;
21769;SDS011;11046;49.558;8.674;2023-07-13T07:08:21;3.03;;;1.60;;
21769;SDS011;11046;49.558;8.674;2023-07-13T07:11:23;2.50;;;1.60;;
21769;SDS011;11046;49.558;8.674;2023-07-13T07:14:25;3.03;;;1.40;;
21769;SDS011;11046;49.558;8.674;2023-07-13T07:17:25;3.03;;;1.25;;
21769;SDS011;11046;49.558;8.674;2023-07-13T07:20:26;3.97;;;1.50;;
21769;SDS011;11046;49.558;8.674;2023-07-13T07:23:27;4.85;;;1.20;;
21769;SDS011;11046;49.558;8.674;2023-07-13T07:26:28;2.35;;;1.27;;
21769;SDS011;11046;49.558;8.674;2023-07-13T07:29:28;5.15;;;1.30;;
21769;SDS011;11046;49.558;8.674;2023-07-13T07:32:29;5.65;;;1.40;;
21769;SDS011;11046;49.558;8.674;2023-07-13T07:35:31;2.45;;;1.70;;
21769;SDS011;11046;49.558;8.674;2023-07-13T07:38:31;5.25;;;1.40;;
21769;SDS011;11046;49.558;8.674;2023-07-13T07:41:32;3.67;;;1.40;;
21769;SDS011;11046;49.558;8.674;2023-07-13T07:44:33;2.72;;;1.23;;
21769;SDS011;11046;49.558;8.674;2023-07-13T07:47:34;5.10;;;1.30;;
21769;SDS011;11046;49.558;8.674;2023-07-13T07:50:34;5.82;;;1.73;;
21769;SDS011;11046;49.558;8.674;2023-07-13T07:53:36;3.42;;;1.60;;
21769;SDS011;11046;49.558;8.674;2023-07-13T07:56:37;2.53;;;1.33;;
21769;SDS011;11046;49.558;8.674;2023-07-13T07:59:37;2.83;;;1.40;;
21769;SDS011;11046;49.558;8.674;2023-07-13T08:02:38;2.50;;;1.30;;
21769;SDS011;11046;49.558;8.674;2023-07-13T08:05:41;3.10;;;1.27;;
21769;SDS011;11046;49.558;8.674;2023-07-13T08:08:41;3.40;;;1.48;;
21769;SDS011;11046;49.558;8.674;2023-07-13T08:11:42;2.92;;;1.33;;
21769;SDS011;11046;49.558;8.674;2023-07-13T08:14:42;2.95;;;1.30;;
21769;SDS011;11046;49.558;8.674;2023-07-13T08:17:43;2.55;;;1.50;;
21769;SDS011;11046;49.558;8.674;2023-07-13T08:20:44;2.30;;;1.30;;
21769;SDS011;11046;49.558;8.674;2023-07-13T08:23:44;3.58;;;1.45;;
21769;SDS011;11046;49.558;8.674;2023-07-13T08:26:45;3.30;;;1.50;;
21769;SDS011;11046;49.558;8.674;2023-07-13T08:29:49;5.18;;;1.50;;
21769;SDS011;11046;49.558;8.674;2023-07-13T08:32:49;3.42;;;1.63;;
21769;SDS011;11046;49.558;8.674;2023-07-13T08:35:50;3.83;;;1.63;;
21769;SDS011;11046;49.558;8.674;2023-07-13T08:38:51;8.35;;;1.70;;
21769;SDS011;11046;49.558;8.674;2023-07-13T08:41:52;2.20;;;1.40;;
21769;SDS011;11046;49.558;8.674;2023-07-13T08:45:04;3.78;;;1.45;;
21769;SDS011;11046;49.558;8.674;2023-07-13T08:48:30;5.15;;;1.67;;
21769;SDS011;11046;49.558;8.674;2023-07-13T08:51:40;3.92;;;1.58;;
21769;SDS011;11046;49.558;8.674;2023-07-13T08:54:51;3.55;;;1.75;;
21769;SDS011;11046;49.558;8.674;2023-07-13T08:57:56;5.25;;;1.42;;
21769;SDS011;11046;49.558;8.674;2023-07-13T09:04:22;3.83;;;1.50;;
21769;SDS011;11046;49.558;8.674;2023-07-13T09:07:34;3.97;;;1.63;;
21769;SDS011;11046;49.558;8.674;2023-07-13T09:11:23;2.55;;;1.80;;
21769;SDS011;11046;49.558;8.674;2023-07-13T09:14:47;3.85;;;1.30;;
21769;SDS011;11046;49.558;8.674;2023-07-13T09:17:51;6.20;;;2.00;;
21769;SDS011;11046;49.558;8.674;2023-07-13T09:20:59;2.55;;;1.35;;
21769;SDS011;11046;49.558;8.674;2023-07-13T09:24:34;4.40;;;1.48;;
21769;SDS011;11046;49.558;8.674;2023-07-13T09:27:30;4.72;;;1.23;;
21769;SDS011;11046;49.558;8.674;2023-07-13T09:30:43;3.17;;;1.35;;
21769;SDS011;11046;49.558;8.674;2023-07-13T09:33:51;9.15;;;1.70;;
21769;SDS011;11046;49.558;8.674;2023-07-13T09:36:52;6.32;;;1.33;;
21769;SDS011;11046;49.558;8.674;2023-07-13T09:39:52;5.25;;;1.40;;
21769;SDS011;11046;49.558;8.674;2023-07-13T09:42:54;4.72;;;1.25;;
21769;SDS011;11046;49.558;8.674;2023-07-13T09:45:56;1.65;;;1.25;;
21769;SDS011;11046;49.558;8.674;2023-07-13T09:48:56;2.90;;;1.17;;
21769;SDS011;11046;49.558;8.674;2023-07-13T09:51:58;5.50;;;1.30;;
21769;SDS011;11046;49.558;8.674;2023-07-13T09:55:03;1.77;;;1.10;;
21769;SDS011;11046;49.558;8.674;2023-07-13T10:01:13;2.78;;;1.25;;
21769;SDS011;11046;49.558;8.674;2023-07-13T10:04:16;4.65;;;1.30;;
21769;SDS011;11046;49.558;8.674;2023-07-13T10:07:18;3.70;;;1.33;;
21769;SDS011;11046;49.558;8.674;2023-07-13T10:10:23;4.15;;;1.63;;
21769;SDS011;11046;49.558;8.674;2023-07-13T10:16:30;3.38;;;1.30;;
21769;SDS011;11046;49.558;8.674;2023-07-13T10:19:33;3.83;;;1.30;;
21769;SDS011;11046;49.558;8.674;2023-07-13T10:22:52;3.80;;;1.30;;
21769;SDS011;11046;49.558;8.674;2023-07-13T10:25:54;5.43;;;1.33;;
21769;SDS011;11046;49.558;8.674;2023-07-13T10:28:57;2.97;;;1.52;;
21769;SDS011;11046;49.558;8.674;2023-07-13T10:32:02;6.32;;;1.88;;
21769;SDS011;11046;49.558;8.674;2023-07-13T10:35:09;4.60;;;1.35;;
21769;SDS011;11046;49.558;8.674;2023-07-13T10:38:13;2.45;;;1.13;;
21769;SDS011;11046;49.558;8.674;2023-07-13T10:41:18;2.88;;;1.30;;
21769;SDS011;11046;49.558;8.674;2023-07-13T10:44:26;2.95;;;1.50;;
21769;SDS011;11046;49.558;8.674;2023-07-13T10:47:30;4.35;;;1.40;;
21769;SDS011;11046;49.558;8.674;2023-07-13T10:50:32;6.22;;;1.48;;
21769;SDS011;11046;49.558;8.674;2023-07-13T10:53:43;3.22;;;1.52;;
21769;SDS011;11046;49.558;8.674;2023-07-13T10:56:44;2.53;;;1.38;;
21769;SDS011;11046;49.558;8.674;2023-07-13T11:00:13;2.03;;;1.17;;
21769;SDS011;11046;49.558;8.674;2023-07-13T11:03:13;2.95;;;1.40;;
21769;SDS011;11046;49.558;8.674;2023-07-13T11:06:33;3.38;;;1.35;;
21769;SDS011;11046;49.558;8.674;2023-07-13T11:09:40;3.95;;;1.50;;
21769;SDS011;11046;49.558;8.674;2023-07-13T11:15:47;1.40;;;1.02;;
21769;SDS011;11046;49.558;8.674;2023-07-13T11:18:49;3.28;;;1.00;;
21769;SDS011;11046;49.558;8.674;2023-07-13T11:22:02;1.73;;;1.10;;
21769;SDS011;11046;49.558;8.674;2023-07-13T11:28:31;3.72;;;1.30;;
21769;SDS011;11046;49.558;8.674;2023-07-13T11:31:33;4.30;;;1.20;;
21769;SDS011;11046;49.558;8.674;2023-07-13T11:34:35;5.25;;;1.10;;
21769;SDS011;11046;49.558;8.674;2023-07-13T11:37:38;6.88;;;1.40;;
21769;SDS011;11046;49.558;8.674;2023-07-13T11:40:39;2.03;;;1.10;;
21769;SDS011;11046;49.558;8.674;2023-07-13T11:43:41;3.45;;;1.42;;
21769;SDS011;11046;49.558;8.674;2023-07-13T11:46:46;5.85;;;1.00;;
21769;SDS011;11046;49.558;8.674;2023-07-13T11:49:49;5.50;;;2.08;;
21769;SDS011;11046;49.558;8.674;2023-07-13T11:52:52;2.35;;;1.17;;
21769;SDS011;11046;49.558;8.674;2023-07-13T11:55:56;2.80;;;1.10;;
21769;SDS011;11046;49.558;8.674;2023-07-13T11:59:02;1.38;;;1.00;;
21769;SDS011;11046;49.558;8.674;2023-07-13T12:02:14;2.55;;;1.08;;
21769;SDS011;11046;49.558;8.674;2023-07-13T12:05:23;9.80;;;1.60;;
21769;SDS011;11046;49.558;8.674;2023-07-13T12:08:24;2.75;;;1.40;;
21769;SDS011;11046;49.558;8.674;2023-07-13T12:11:26;2.30;;;1.10;;
21769;SDS011;11046;49.558;8.674;2023-07-13T12:14:27;2.22;;;1.35;;
21769;SDS011;11046;49.558;8.674;2023-07-13T12:17:28;3.22;;;1.38;;
21769;SDS011;11046;49.558;8.674;2023-07-13T12:20:37;4.72;;;1.67;;
21769;SDS011;11046;49.558;8.674;2023-07-13T12:23:39;3.15;;;1.23;;
21769;SDS011;11046;49.558;8.674;2023-07-13T12:26:43;3.67;;;1.20;;
21769;SDS011;11046;49.558;8.674;2023-07-13T12:29:57;2.55;;;1.20;;
21769;SDS011;11046;49.558;8.674;2023-07-13T12:33:01;3.75;;;1.10;;
21769;SDS011;11046;49.558;8.674;2023-07-13T12:36:11;3.72;;;1.20;;
21769;SDS011;11046;49.558;8.674;2023-07-13T12:39:14;5.78;;;1.20;;
21769;SDS011;11046;49.558;8.674;2023-07-13T12:42:25;2.55;;;1.45;;
21769;SDS011;11046;49.558;8.674;2023-07-13T12:45:28;3.25;;;1.50;;
21769;SDS011;11046;49.558;8.674;2023-07-13T12:48:29;4.63;;;1.02;;
21769;SDS011;11046;49.558;8.674;2023-07-13T12:51:29;4.25;;;1.30;;
21769;SDS011;11046;49.558;8.674;2023-07-13T12:54:30;2.83;;;1.20;;
21769;SDS011;11046;49.558;8.674;2023-07-13T12:57:31;2.35;;;1.20;;
21769;SDS011;11046;49.558;8.674;2023-07-13T13:00:36;4.40;;;1.67;;
21769;SDS011;11046;49.558;8.674;2023-07-13T13:03:39;2.08;;;1.50;;
21769;SDS011;11046;49.558;8.674;2023-07-13T13:06:45;2.95;;;1.50;;
21769;SDS011;11046;49.558;8.674;2023-07-13T13:09:46;4.75;;;1.55;;
21769;SDS011;11046;49.558;8.674;2023-07-13T13:12:47;4.25;;;1.40;;
21769;SDS011;11046;49.558;8.674;2023-07-13T13:15:48;8.73;;;1.40;;
21769;SDS011;11046;49.558;8.674;2023-07-13T13:18:49;2.53;;;1.38;;
21769;SDS011;11046;49.558;8.674;2023-07-13T13:21:52;2.15;;;1.20;;
21769;SDS011;11046;49.558;8.674;2023-07-13T13:24:56;4.47;;;1.55;;
21769;SDS011;11046;49.558;8.674;2023-07-13T13:27:57;5.25;;;1.52;;
21769;SDS011;11046;49.558;8.674;2023-07-13T13:31:07;3.60;;;1.35;;
21769;SDS011;11046;49.558;8.674;2023-07-13T13:34:13;3.83;;;1.38;;
21769;SDS011;11046;49.558;8.674;2023-07-13T13:37:21;4.78;;;1.38;;
21769;SDS011;11046;49.558;8.674;2023-07-13T13:40:25;2.42;;;1.23;;
21769;SDS011;11046;49.558;8.674;2023-07-13T13:43:27;4.45;;;1.30;;
21769;SDS011;11046;49.558;8.674;2023-07-13T13:46:27;4.70;;;1.10;;
21769;SDS011;11046;49.558;8.674;2023-07-13T13:49:30;1.98;;;1.00;;
21769;SDS011;11046;49.558;8.674;2023-07-13T13:52:31;5.32;;;1.75;;
21769;SDS011;11046;49.558;8.674;2023-07-13T13:55:32;1.75;;;1.23;;
21769;SDS011;11046;49.558;8.674;2023-07-13T13:58:32;4.45;;;1.33;;
21769;SDS011;11046;49.558;8.674;2023-07-13T14:01:33;2.00;;;1.20;;
21769;SDS011;11046;49.558;8.674;2023-07-13T14:04:33;1.60;;;1.02;;
21769;SDS011;11046;49.558;8.674;2023-07-13T14:07:34;2.70;;;1.30;;
21769;SDS011;11046;49.558;8.674;2023-07-13T14:10:35;3.10;;;1.35;;
21769;SDS011;11046;49.558;8.674;2023-07-13T14:13:36;3.72;;;1.30;;
21769;SDS011;11046;49.558;8.674;2023-07-13T14:16:41;2.88;;;1.15;;
21769;SDS011;11046;49.558;8.674;2023-07-13T14:19:42;4.28;;;1.10;;
21769;SDS011;11046;49.558;8.674;2023-07-13T14:22:43;4.55;;;1.27;;
21769;SDS011;11046;49.558;8.674;2023-07-13T14:25:47;1.75;;;1.20;;
21769;SDS011;11046;49.558;8.674;2023-07-13T14:28:48;3.28;;;1.40;;
21769;SDS011;11046;49.558;8.674;2023-07-13T14:31:51;2.42;;;1.33;;
21769;SDS011;11046;49.558;8.674;2023-07-13T14:34:52;4.35;;;1.20;;
21769;SDS011;11046;49.558;8.674;2023-07-13T14:37:52;3.80;;;1.38;;
21769;SDS011;11046;49.558;8.674;2023-07-13T14:40:53;2.15;;;1.23;;
21769;SDS011;11046;49.558;8.674;2023-07-13T14:43:54;5.45;;;1.70;;
21769;SDS011;11046;49.558;8.674;2023-07-13T14:46:54;4.13;;;1.42;;
21769;SDS011;11046;49.558;8.674;2023-07-13T14:49:58;2.63;;;1.40;;
21769;SDS011;11046;49.558;8.674;2023-07-13T14:52:58;4.28;;;1.10;;
21769;SDS011;11046;49.558;8.674;2023-07-13T14:55:59;5.40;;;1.73;;
21769;SDS011;11046;49.558;8.674;2023-07-13T14:58:59;3.05;;;1.17;;
21769;SDS011;11046;49.558;8.674;2023-07-13T15:02:00;4.22;;;1.50;;
21769;SDS011;11046;49.558;8.674;2023-07-13T15:05:02;3.58;;;1.48;;
21769;SDS011;11046;49.558;8.674;2023-07-13T15:08:12;2.67;;;1.25;;
21769;SDS011;11046;49.558;8.674;2023-07-13T15:11:13;3.38;;;1.13;;
21769;SDS011;11046;49.558;8.674;2023-07-13T15:14:13;5.82;;;1.17;;
21769;SDS011;11046;49.558;8.674;2023-07-13T15:20:36;6.45;;;1.45;;
21769;SDS011;11046;49.558;8.674;2023-07-13T15:23:37;3.30;;;1.40;;
21769;SDS011;11046;49.558;8.674;2023-07-13T15:26:38;2.78;;;1.27;;
21769;SDS011;11046;49.558;8.674;2023-07-13T15:29:38;2.63;;;1.23;;
21769;SDS011;11046;49.558;8.674;2023-07-13T15:32:43;2.35;;;0.95;;
21769;SDS011;11046;49.558;8.674;2023-07-13T15:35:44;6.22;;;1.40;;
21769;SDS011;11046;49.558;8.674;2023-07-13T15:38:47;2.85;;;0.90;;
21769;SDS011;11046;49.558;8.674;2023-07-13T15:41:50;4.25;;;0.90;;
21769;SDS011;11046;49.558;8.674;2023-07-13T15:44:52;2.30;;;1.35;;
21769;SDS011;11046;49.558;8.674;2023-07-13T15:47:52;1.88;;;1.05;;
21769;SDS011;11046;49.558;8.674;2023-07-13T15:50:54;4.03;;;1.48;;
21769;SDS011;11046;49.558;8.674;2023-07-13T15:54:00;3.67;;;1.10;;
21769;SDS011;11046;49.558;8.674;2023-07-13T15:57:08;2.33;;;1.20;;
21769;SDS011;11046;49.558;8.674;2023-07-13T16:00:21;2.17;;;1.10;;
21769;SDS011;11046;49.558;8.674;2023-07-13T16:03:24;2.75;;;1.17;;
21769;SDS011;11046;49.558;8.674;2023-07-13T16:06:26;5.63;;;1.27;;
21769;SDS011;11046;49.558;8.674;2023-07-13T16:09:29;3.08;;;1.10;;
21769;SDS011;11046;49.558;8.674;2023-07-13T16:12:30;3.90;;;0.90;;
21769;SDS011;11046;49.558;8.674;2023-07-13T16:15:31;2.67;;;1.15;;
21769;SDS011;11046;49.558;8.674;2023-07-13T16:18:31;4.95;;;1.40;;
21769;SDS011;11046;49.558;8.674;2023-07-13T16:21:33;4.25;;;1.13;;
21769;SDS011;11046;49.558;8.674;2023-07-13T16:24:38;2.45;;;1.25;;
21769;SDS011;11046;49.558;8.674;2023-07-13T16:27:38;3.47;;;1.17;;
21769;SDS011;11046;49.558;8.674;2023-07-13T16:30:39;4.03;;;1.10;;
21769;SDS011;11046;49.558;8.674;2023-07-13T16:33:39;4.43;;;1.30;;
21769;SDS011;11046;49.558;8.674;2023-07-13T16:36:40;3.10;;;1.38;;
21769;SDS011;11046;49.558;8.674;2023-07-13T16:39:46;5.97;;;1.30;;
21769;SDS011;11046;49.558;8.674;2023-07-13T16:42:53;2.33;;;1.15;;
21769;SDS011;11046;49.558;8.674;2023-07-13T16:45:55;2.17;;;1.00;;
21769;SDS011;11046;49.558;8.674;2023-07-13T16:48:59;2.47;;;1.13;;
21769;SDS011;11046;49.558;8.674;2023-07-13T16:52:01;4.18;;;1.30;;
21769;SDS011;11046;49.558;8.674;2023-07-13T16:55:03;6.15;;;1.00;;
21769;SDS011;11046;49.558;8.674;2023-07-13T16:58:04;4.13;;;1.10;;
21769;SDS011;11046;49.558;8.674;2023-07-13T17:01:06;2.55;;;1.13;;
21769;SDS011;11046;49.558;8.674;2023-07-13T17:04:08;4.03;;;1.40;;
21769;SDS011;11046;49.558;8.674;2023-07-13T17:07:10;4.57;;;1.10;;
21769;SDS011;11046;49.558;8.674;2023-07-13T17:10:15;6.20;;;1.42;;
21769;SDS011;11046;49.558;8.674;2023-07-13T17:13:19;2.17;;;1.10;;
21769;SDS011;11046;49.558;8.674;2023-07-13T17:16:21;3.75;;;1.42;;
21769;SDS011;11046;49.558;8.674;2023-07-13T17:19:26;3.65;;;1.05;;
21769;SDS011;11046;49.558;8.674;2023-07-13T17:22:29;6.95;;;1.50;;
21769;SDS011;11046;49.558;8.674;2023-07-13T17:25:29;4.00;;;1.02;;
21769;SDS011;11046;49.558;8.674;2023-07-13T17:28:31;3.10;;;1.05;;
21769;SDS011;11046;49.558;8.674;2023-07-13T17:31:32;5.10;;;1.23;;
21769;SDS011;11046;49.558;8.674;2023-07-13T17:34:33;2.65;;;1.20;;
21769;SDS011;11046;49.558;8.674;2023-07-13T17:37:34;5.15;;;1.15;;
21769;SDS011;11046;49.558;8.674;2023-07-13T17:40:34;3.97;;;0.93;;
21769;SDS011;11046;49.558;8.674;2023-07-13T17:43:35;2.15;;;1.00;;
21769;SDS011;11046;49.558;8.674;2023-07-13T17:46:36;3.53;;;1.20;;
21769;SDS011;11046;49.558;8.674;2023-07-13T17:49:37;1.83;;;1.10;;
21769;SDS011;11046;49.558;8.674;2023-07-13T17:52:37;1.60;;;1.05;;
21769;SDS011;11046;49.558;8.674;2023-07-13T17:55:39;5.00;;;1.33;;
21769;SDS011;11046;49.558;8.674;2023-07-13T17:58:40;2.60;;;1.30;;
21769;SDS011;11046;49.558;8.674;2023-07-13T18:01:42;4.18;;;1.33;;
21769;SDS011;11046;49.558;8.674;2023-07-13T18:04:44;6.28;;;1.27;;
21769;SDS011;11046;49.558;8.674;2023-07-13T18:07:47;3.33;;;1.10;;
21769;SDS011;11046;49.558;8.674;2023-07-13T18:10:47;2.63;;;1.27;;
21769;SDS011;11046;49.558;8.674;2023-07-13T18:13:48;2.75;;;1.35;;
21769;SDS011;11046;49.558;8.674;2023-07-13T18:16:50;3.20;;;1.30;;
21769;SDS011;11046;49.558;8.674;2023-07-13T18:19:54;3.28;;;1.10;;
21769;SDS011;11046;49.558;8.674;2023-07-13T18:22:56;4.18;;;1.17;;
21769;SDS011;11046;49.558;8.674;2023-07-13T18:25:57;2.75;;;0.90;;
21769;SDS011;11046;49.558;8.674;2023-07-13T18:28:57;3.90;;;1.05;;
21769;SDS011;11046;49.558;8.674;2023-07-13T18:31:58;3.25;;;1.20;;
21769;SDS011;11046;49.558;8.674;2023-07-13T18:35:03;3.83;;;1.05;;
21769;SDS011;11046;49.558;8.674;2023-07-13T18:38:07;2.15;;;1.13;;
21769;SDS011;11046;49.558;8.674;2023-07-13T18:41:19;3.08;;;1.27;;